Oberon — ZCEB5 — position and weather

sailwx.info

Track history (hours):
 
Tides and Currents Weather Stations Pressure Air Temp Water Temp Dewpoint Dewpoint Depression Visibility Wind Speed Wind Dir Waves Ship Positions

Oberon

Last reported at 2014-Jul-22 21:28 UTC. Time now 2014-Jul-24 03:52 UTC.
Position N 48°20' W 125°08'.

Length 49 m; draft 3.8 m.

Type: Ship. MMSI: 310586000.

Date/timePositionNaut miles runAvg speedWind from/ knotsBaromVisibWave heightAir tempDewpointWater temp
2014-Jul-22 21:28N 48°20' W 125°08'1314.8
2014-Jul-22 20:33N 48°31' W 124°57'1717.5
2014-Jul-22 19:34N 48°27' W 124°31'1717.0
2014-Jul-22 18:33N 48°21' W 124°07'1716.7
2014-Jul-22 17:34N 48°17' W 123°43'1414.4
2014-Jul-22 16:33N 48°23' W 123°24'2 2.3
2014-Jul-22 15:34N 48°26' W 123°22'  
2014-Jul-18 02:32N 48°25' W 123°22'0 0.0
2014-Jul-18 01:33N 48°26' W 123°22'0 0.0
2014-Jul-18 00:33N 48°26' W 123°22'0 0.0
2014-Jul-17 23:32N 48°26' W 123°22'0 0.0
2014-Jul-17 22:15N 48°26' W 123°22'1 0.7
2014-Jul-17 21:33N 48°25' W 123°23'9 8.8
2014-Jul-17 20:33N 48°31' W 123°13'1515.5
2014-Jul-17 19:33N 48°46' W 123°05'1514.9
2014-Jul-17 18:33N 48°58' W 123°16'1616.0
2014-Jul-17 17:33N 49°14' W 123°21'1010.2
2014-Jul-17 16:34N 49°18' W 123°07'1 0.9
2014-Jul-17 15:33N 49°18' W 123°08'0 0.0
2014-Jul-17 14:33N 49°18' W 123°08'0 0.0
2014-Jul-17 13:33N 49°18' W 123°08'0 0.0
2014-Jul-17 12:33N 49°18' W 123°08'0 0.0
2014-Jul-17 11:33N 49°18' W 123°08'0 0.0
2014-Jul-17 10:33N 49°18' W 123°08'0 0.0
2014-Jul-17 09:33N 49°18' W 123°08'0 0.0
2014-Jul-17 08:33N 49°18' W 123°08'0 0.0
2014-Jul-17 07:33N 49°18' W 123°08'0 0.0
2014-Jul-17 06:33N 49°18' W 123°08'0 0.0
2014-Jul-17 05:33N 49°18' W 123°08'0 0.0
2014-Jul-17 04:33N 49°18' W 123°08'0 0.0
2014-Jul-17 03:33N 49°18' W 123°08'0 0.0
2014-Jul-17 02:33N 49°18' W 123°08'0 0.0
2014-Jul-17 01:33N 49°18' W 123°08'0 0.0
2014-Jul-17 00:33N 49°18' W 123°08'0 0.0
2014-Jul-16 23:33N 49°18' W 123°08'0 0.0
2014-Jul-16 22:33N 49°18' W 123°08'0 0.0
2014-Jul-16 21:33N 49°18' W 123°08'0 0.0
2014-Jul-16 20:33N 49°18' W 123°08'0 0.0
2014-Jul-16 19:33N 49°18' W 123°08'0 0.0
2014-Jul-16 18:33N 49°18' W 123°08'0 0.0
2014-Jul-16 17:33N 49°18' W 123°08'0 0.0
2014-Jul-16 16:33N 49°18' W 123°08'0 0.0
2014-Jul-16 15:33N 49°18' W 123°08'0 0.0
2014-Jul-16 14:34N 49°18' W 123°08'0 0.0
2014-Jul-16 13:34N 49°18' W 123°08'0 0.0
2014-Jul-16 12:33N 49°18' W 123°08'0 0.0
2014-Jul-16 11:34N 49°18' W 123°08'0 0.0
2014-Jul-16 10:34N 49°18' W 123°08'0 0.0
2014-Jul-16 09:34N 49°18' W 123°08'0 0.0
2014-Jul-16 08:34N 49°18' W 123°08'0 0.0
2014-Jul-16 07:33N 49°18' W 123°08'0 0.0
2014-Jul-16 06:34N 49°18' W 123°08'0 0.0
2014-Jul-16 05:34N 49°18' W 123°08'0 0.0
2014-Jul-16 04:34N 49°18' W 123°08'0 0.0
2014-Jul-16 03:34N 49°18' W 123°08'0 0.0
2014-Jul-16 02:34N 49°18' W 123°08'0 0.0
2014-Jul-16 01:34N 49°18' W 123°08'0 0.0
2014-Jul-16 00:34N 49°18' W 123°08'0 0.0
2014-Jul-15 23:34N 49°18' W 123°08'0 0.0
2014-Jul-15 22:34N 49°18' W 123°08'0 0.0
2014-Jul-15 21:34N 49°18' W 123°08'0 0.0
2014-Jul-15 20:34N 49°18' W 123°08'0 0.0
2014-Jul-15 19:34N 49°18' W 123°08'0 0.0
2014-Jul-15 18:34N 49°18' W 123°08'7 7.1
2014-Jul-15 17:34N 49°18' W 123°18'  
Track history (hours):
 
Tides and Currents Weather Stations Pressure Air Temp Water Temp Dewpoint Dewpoint Depression Visibility Wind Speed Wind Dir Waves Ship Positions

Oberon

Last reported at 2014-Jul-22 21:28 UTC. Time now 2014-Jul-24 03:52 UTC.
Position N 48°20' W 125°08'.

Length 49 m; draft 3.8 m.

Type: Ship. MMSI: 310586000.

Date/timePositionNaut miles runAvg speedWind from/ knotsBaromVisibWave heightAir tempDewpointWater temp
2014-Jul-22 21:28N 48°20' W 125°08'1314.8
2014-Jul-22 20:33N 48°31' W 124°57'1717.5
2014-Jul-22 19:34N 48°27' W 124°31'1717.0
2014-Jul-22 18:33N 48°21' W 124°07'1716.7
2014-Jul-22 17:34N 48°17' W 123°43'1414.4
2014-Jul-22 16:33N 48°23' W 123°24'2 2.3
2014-Jul-22 15:34N 48°26' W 123°22'  
2014-Jul-18 02:32N 48°25' W 123°22'0 0.0
2014-Jul-18 01:33N 48°26' W 123°22'0 0.0
2014-Jul-18 00:33N 48°26' W 123°22'0 0.0
2014-Jul-17 23:32N 48°26' W 123°22'0 0.0
2014-Jul-17 22:15N 48°26' W 123°22'1 0.7
2014-Jul-17 21:33N 48°25' W 123°23'9 8.8
2014-Jul-17 20:33N 48°31' W 123°13'1515.5
2014-Jul-17 19:33N 48°46' W 123°05'1514.9
2014-Jul-17 18:33N 48°58' W 123°16'1616.0
2014-Jul-17 17:33N 49°14' W 123°21'1010.2
2014-Jul-17 16:34N 49°18' W 123°07'1 0.9
2014-Jul-17 15:33N 49°18' W 123°08'0 0.0
2014-Jul-17 14:33N 49°18' W 123°08'0 0.0
2014-Jul-17 13:33N 49°18' W 123°08'0 0.0
2014-Jul-17 12:33N 49°18' W 123°08'0 0.0
2014-Jul-17 11:33N 49°18' W 123°08'0 0.0
2014-Jul-17 10:33N 49°18' W 123°08'0 0.0
2014-Jul-17 09:33N 49°18' W 123°08'0 0.0
2014-Jul-17 08:33N 49°18' W 123°08'0 0.0
2014-Jul-17 07:33N 49°18' W 123°08'0 0.0
2014-Jul-17 06:33N 49°18' W 123°08'0 0.0
2014-Jul-17 05:33N 49°18' W 123°08'0 0.0
2014-Jul-17 04:33N 49°18' W 123°08'0 0.0
2014-Jul-17 03:33N 49°18' W 123°08'0 0.0
2014-Jul-17 02:33N 49°18' W 123°08'0 0.0
2014-Jul-17 01:33N 49°18' W 123°08'0 0.0
2014-Jul-17 00:33N 49°18' W 123°08'0 0.0
2014-Jul-16 23:33N 49°18' W 123°08'0 0.0
2014-Jul-16 22:33N 49°18' W 123°08'0 0.0
2014-Jul-16 21:33N 49°18' W 123°08'0 0.0
2014-Jul-16 20:33N 49°18' W 123°08'0 0.0
2014-Jul-16 19:33N 49°18' W 123°08'0 0.0
2014-Jul-16 18:33N 49°18' W 123°08'0 0.0
2014-Jul-16 17:33N 49°18' W 123°08'0 0.0
2014-Jul-16 16:33N 49°18' W 123°08'0 0.0
2014-Jul-16 15:33N 49°18' W 123°08'0 0.0
2014-Jul-16 14:34N 49°18' W 123°08'0 0.0
2014-Jul-16 13:34N 49°18' W 123°08'0 0.0
2014-Jul-16 12:33N 49°18' W 123°08'0 0.0
2014-Jul-16 11:34N 49°18' W 123°08'0 0.0
2014-Jul-16 10:34N 49°18' W 123°08'0 0.0
2014-Jul-16 09:34N 49°18' W 123°08'0 0.0
2014-Jul-16 08:34N 49°18' W 123°08'0 0.0
2014-Jul-16 07:33N 49°18' W 123°08'0 0.0
2014-Jul-16 06:34N 49°18' W 123°08'0 0.0
2014-Jul-16 05:34N 49°18' W 123°08'0 0.0
2014-Jul-16 04:34N 49°18' W 123°08'0 0.0
2014-Jul-16 03:34N 49°18' W 123°08'0 0.0
2014-Jul-16 02:34N 49°18' W 123°08'0 0.0
2014-Jul-16 01:34N 49°18' W 123°08'0 0.0
2014-Jul-16 00:34N 49°18' W 123°08'0 0.0
2014-Jul-15 23:34N 49°18' W 123°08'0 0.0
2014-Jul-15 22:34N 49°18' W 123°08'0 0.0
2014-Jul-15 21:34N 49°18' W 123°08'0 0.0
2014-Jul-15 20:34N 49°18' W 123°08'0 0.0
2014-Jul-15 19:34N 49°18' W 123°08'0 0.0
2014-Jul-15 18:34N 49°18' W 123°08'7 7.1
2014-Jul-15 17:34N 49°18' W 123°18'  

Dump ship's entire track history